sensor_id;sensor_type;location;lat;lon;timestamp;temperature;humidity
69901;DHT22;57183;50.930;5.406;2023-04-24T00:00:01;10.40;99.90
69901;DHT22;57183;50.930;5.406;2023-04-24T00:02:28;10.30;99.90
69901;DHT22;57183;50.930;5.406;2023-04-24T00:04:54;10.30;99.90
69901;DHT22;57183;50.930;5.406;2023-04-24T00:07:19;10.20;99.90
69901;DHT22;57183;50.930;5.406;2023-04-24T00:09:46;10.20;99.90
69901;DHT22;57183;50.930;5.406;2023-04-24T00:12:11;10.20;99.90
69901;DHT22;57183;50.930;5.406;2023-04-24T00:14:38;10.20;99.90
69901;DHT22;57183;50.930;5.406;2023-04-24T00:17:04;10.10;99.90
69901;DHT22;57183;50.930;5.406;2023-04-24T00:19:29;10.20;99.90
69901;DHT22;57183;50.930;5.406;2023-04-24T00:21:55;10.20;99.90
69901;DHT22;57183;50.930;5.406;2023-04-24T00:24:21;10.20;99.90
69901;DHT22;57183;50.930;5.406;2023-04-24T00:26:47;10.20;99.90
69901;DHT22;57183;50.930;5.406;2023-04-24T00:29:12;10.20;99.90
69901;DHT22;57183;50.930;5.406;2023-04-24T00:31:38;10.20;99.90
69901;DHT22;57183;50.930;5.406;2023-04-24T00:34:04;10.20;99.90
69901;DHT22;57183;50.930;5.406;2023-04-24T00:36:31;10.20;99.90
69901;DHT22;57183;50.930;5.406;2023-04-24T00:38:58;10.20;99.90
69901;DHT22;57183;50.930;5.406;2023-04-24T00:41:24;10.20;99.90
69901;DHT22;57183;50.930;5.406;2023-04-24T00:43:51;10.20;99.90
69901;DHT22;57183;50.930;5.406;2023-04-24T00:46:17;10.20;99.90
69901;DHT22;57183;50.930;5.406;2023-04-24T00:48:43;10.20;99.90
69901;DHT22;57183;50.930;5.406;2023-04-24T00:51:09;10.20;99.90
69901;DHT22;57183;50.930;5.406;2023-04-24T00:53:35;10.20;99.90
69901;DHT22;57183;50.930;5.406;2023-04-24T00:56:01;10.30;99.90
69901;DHT22;57183;50.930;5.406;2023-04-24T00:58:27;10.30;99.90
69901;DHT22;57183;50.930;5.406;2023-04-24T01:00:54;10.20;99.90
69901;DHT22;57183;50.930;5.406;2023-04-24T01:03:22;10.30;99.90
69901;DHT22;57183;50.930;5.406;2023-04-24T01:05:50;10.20;99.90
69901;DHT22;57183;50.930;5.406;2023-04-24T01:08:16;10.20;99.90
69901;DHT22;57183;50.930;5.406;2023-04-24T01:10:44;10.20;99.90
69901;DHT22;57183;50.930;5.406;2023-04-24T01:13:10;10.30;99.90
69901;DHT22;57183;50.930;5.406;2023-04-24T01:15:36;10.20;99.90
69901;DHT22;57183;50.930;5.406;2023-04-24T01:18:02;10.10;99.90
69901;DHT22;57183;50.930;5.406;2023-04-24T01:20:28;10.20;99.90
69901;DHT22;57183;50.930;5.406;2023-04-24T01:22:55;10.10;99.90
69901;DHT22;57183;50.930;5.406;2023-04-24T01:25:22;10.10;99.90
69901;DHT22;57183;50.930;5.406;2023-04-24T01:27:48;10.20;99.90
69901;DHT22;57183;50.930;5.406;2023-04-24T01:30:14;10.20;99.90
69901;DHT22;57183;50.930;5.406;2023-04-24T01:32:40;10.10;99.90
69901;DHT22;57183;50.930;5.406;2023-04-24T01:35:10;10.10;99.90
69901;DHT22;57183;50.930;5.406;2023-04-24T01:37:35;10.10;99.90
69901;DHT22;57183;50.930;5.406;2023-04-24T01:40:06;10.00;99.90
69901;DHT22;57183;50.930;5.406;2023-04-24T01:42:32;10.00;99.90
69901;DHT22;57183;50.930;5.406;2023-04-24T01:44:58;10.00;99.90
69901;DHT22;57183;50.930;5.406;2023-04-24T01:47:24;10.00;99.90
69901;DHT22;57183;50.930;5.406;2023-04-24T01:49:50;10.10;99.90
69901;DHT22;57183;50.930;5.406;2023-04-24T01:52:16;10.20;99.90
69901;DHT22;57183;50.930;5.406;2023-04-24T01:54:44;10.10;99.90
69901;DHT22;57183;50.930;5.406;2023-04-24T01:57:10;10.20;99.90
69901;DHT22;57183;50.930;5.406;2023-04-24T01:59:36;10.20;99.90
69901;DHT22;57183;50.930;5.406;2023-04-24T02:02:02;10.20;99.90
69901;DHT22;57183;50.930;5.406;2023-04-24T02:04:28;10.20;99.90
69901;DHT22;57183;50.930;5.406;2023-04-24T02:06:54;10.10;99.90
69901;DHT22;57183;50.930;5.406;2023-04-24T02:09:20;10.00;99.90
69901;DHT22;57183;50.930;5.406;2023-04-24T02:11:46;9.90;99.90
69901;DHT22;57183;50.930;5.406;2023-04-24T02:14:12;9.80;99.90
69901;DHT22;57183;50.930;5.406;2023-04-24T02:16:37;9.70;99.90
69901;DHT22;57183;50.930;5.406;2023-04-24T02:19:03;9.60;99.90
69901;DHT22;57183;50.930;5.406;2023-04-24T02:21:29;9.50;99.90
69901;DHT22;57183;50.930;5.406;2023-04-24T02:23:56;9.40;99.90
69901;DHT22;57183;50.930;5.406;2023-04-24T02:26:22;9.40;99.90
69901;DHT22;57183;50.930;5.406;2023-04-24T02:28:48;9.40;99.90
69901;DHT22;57183;50.930;5.406;2023-04-24T02:31:14;9.40;99.90
69901;DHT22;57183;50.930;5.406;2023-04-24T02:33:39;9.50;99.90
69901;DHT22;57183;50.930;5.406;2023-04-24T02:36:05;9.50;99.90
69901;DHT22;57183;50.930;5.406;2023-04-24T02:38:31;9.50;99.90
69901;DHT22;57183;50.930;5.406;2023-04-24T02:40:56;9.50;99.90
69901;DHT22;57183;50.930;5.406;2023-04-24T02:43:22;9.60;99.90
69901;DHT22;57183;50.930;5.406;2023-04-24T02:45:48;9.50;99.90
69901;DHT22;57183;50.930;5.406;2023-04-24T02:48:14;9.50;99.90
69901;DHT22;57183;50.930;5.406;2023-04-24T02:50:40;9.40;99.90
69901;DHT22;57183;50.930;5.406;2023-04-24T02:53:06;9.40;99.90
69901;DHT22;57183;50.930;5.406;2023-04-24T02:55:31;9.40;99.90
69901;DHT22;57183;50.930;5.406;2023-04-24T02:57:57;9.40;99.90
69901;DHT22;57183;50.930;5.406;2023-04-24T03:00:23;9.50;99.90
69901;DHT22;57183;50.930;5.406;2023-04-24T03:02:48;9.50;99.90
69901;DHT22;57183;50.930;5.406;2023-04-24T03:05:15;9.40;99.90
69901;DHT22;57183;50.930;5.406;2023-04-24T03:07:41;9.30;99.90
69901;DHT22;57183;50.930;5.406;2023-04-24T03:10:07;9.30;99.90
69901;DHT22;57183;50.930;5.406;2023-04-24T03:12:33;9.30;99.90
69901;DHT22;57183;50.930;5.406;2023-04-24T03:14:58;9.30;99.90
69901;DHT22;57183;50.930;5.406;2023-04-24T03:17:24;9.20;99.90
69901;DHT22;57183;50.930;5.406;2023-04-24T03:19:50;9.20;99.90
69901;DHT22;57183;50.930;5.406;2023-04-24T03:22:16;9.20;99.90
69901;DHT22;57183;50.930;5.406;2023-04-24T03:24:41;9.20;99.90
69901;DHT22;57183;50.930;5.406;2023-04-24T03:27:07;9.20;99.90
69901;DHT22;57183;50.930;5.406;2023-04-24T03:29:33;9.20;99.90
69901;DHT22;57183;50.930;5.406;2023-04-24T03:31:58;9.10;99.90
69901;DHT22;57183;50.930;5.406;2023-04-24T03:34:24;9.20;99.90
69901;DHT22;57183;50.930;5.406;2023-04-24T03:36:50;9.20;99.90
69901;DHT22;57183;50.930;5.406;2023-04-24T03:39:16;9.30;99.90
69901;DHT22;57183;50.930;5.406;2023-04-24T03:41:41;9.30;99.90
69901;DHT22;57183;50.930;5.406;2023-04-24T03:44:07;9.30;99.90
69901;DHT22;57183;50.930;5.406;2023-04-24T03:46:33;9.40;99.90
69901;DHT22;57183;50.930;5.406;2023-04-24T03:48:58;9.20;99.90
69901;DHT22;57183;50.930;5.406;2023-04-24T03:51:24;9.10;99.90
69901;DHT22;57183;50.930;5.406;2023-04-24T03:53:50;9.10;99.90
69901;DHT22;57183;50.930;5.406;2023-04-24T03:56:16;9.20;99.90
69901;DHT22;57183;50.930;5.406;2023-04-24T03:58:42;9.20;99.90
69901;DHT22;57183;50.930;5.406;2023-04-24T04:01:08;9.30;99.90
69901;DHT22;57183;50.930;5.406;2023-04-24T04:03:33;9.30;99.90
69901;DHT22;57183;50.930;5.406;2023-04-24T04:05:59;9.20;99.90
69901;DHT22;57183;50.930;5.406;2023-04-24T04:08:25;9.20;99.90
69901;DHT22;57183;50.930;5.406;2023-04-24T04:10:50;9.20;99.90
69901;DHT22;57183;50.930;5.406;2023-04-24T04:13:16;9.20;99.90
69901;DHT22;57183;50.930;5.406;2023-04-24T04:15:43;9.20;99.90
69901;DHT22;57183;50.930;5.406;2023-04-24T04:18:08;9.20;99.90
69901;DHT22;57183;50.930;5.406;2023-04-24T04:20:34;9.30;99.90
69901;DHT22;57183;50.930;5.406;2023-04-24T04:23:00;9.20;99.90
69901;DHT22;57183;50.930;5.406;2023-04-24T04:25:25;9.20;99.90
69901;DHT22;57183;50.930;5.406;2023-04-24T04:27:51;9.20;99.90
69901;DHT22;57183;50.930;5.406;2023-04-24T04:30:17;9.20;99.90
69901;DHT22;57183;50.930;5.406;2023-04-24T04:32:43;9.20;99.90
69901;DHT22;57183;50.930;5.406;2023-04-24T04:35:09;9.10;99.90
69901;DHT22;57183;50.930;5.406;2023-04-24T04:37:35;9.00;99.90
69901;DHT22;57183;50.930;5.406;2023-04-24T04:40:02;9.00;99.90
69901;DHT22;57183;50.930;5.406;2023-04-24T04:42:37;8.90;99.90
69901;DHT22;57183;50.930;5.406;2023-04-24T04:45:08;8.90;99.90
69901;DHT22;57183;50.930;5.406;2023-04-24T04:47:37;8.80;99.90
69901;DHT22;57183;50.930;5.406;2023-04-24T04:50:03;8.80;99.90
69901;DHT22;57183;50.930;5.406;2023-04-24T04:52:31;8.70;99.90
69901;DHT22;57183;50.930;5.406;2023-04-24T04:54:56;8.70;99.90
69901;DHT22;57183;50.930;5.406;2023-04-24T04:57:22;8.60;99.90
69901;DHT22;57183;50.930;5.406;2023-04-24T04:59:48;8.60;99.90
69901;DHT22;57183;50.930;5.406;2023-04-24T05:02:13;8.70;99.90
69901;DHT22;57183;50.930;5.406;2023-04-24T05:04:39;8.60;99.90
69901;DHT22;57183;50.930;5.406;2023-04-24T05:07:05;8.60;99.90
69901;DHT22;57183;50.930;5.406;2023-04-24T05:09:31;8.70;99.90
69901;DHT22;57183;50.930;5.406;2023-04-24T05:11:57;8.70;99.90
69901;DHT22;57183;50.930;5.406;2023-04-24T05:14:23;8.60;99.90
69901;DHT22;57183;50.930;5.406;2023-04-24T05:16:48;8.70;99.90
69901;DHT22;57183;50.930;5.406;2023-04-24T05:19:14;8.70;99.90
69901;DHT22;57183;50.930;5.406;2023-04-24T05:21:40;8.60;99.90
69901;DHT22;57183;50.930;5.406;2023-04-24T05:24:06;8.70;99.90
69901;DHT22;57183;50.930;5.406;2023-04-24T05:26:32;8.70;99.90
69901;DHT22;57183;50.930;5.406;2023-04-24T05:28:58;8.60;99.90
69901;DHT22;57183;50.930;5.406;2023-04-24T05:31:24;8.60;99.90
69901;DHT22;57183;50.930;5.406;2023-04-24T05:33:50;8.60;99.90
69901;DHT22;57183;50.930;5.406;2023-04-24T05:36:16;8.60;99.90
69901;DHT22;57183;50.930;5.406;2023-04-24T05:38:42;8.60;99.90
69901;DHT22;57183;50.930;5.406;2023-04-24T05:41:07;8.70;99.90
69901;DHT22;57183;50.930;5.406;2023-04-24T05:43:33;8.70;99.90
69901;DHT22;57183;50.930;5.406;2023-04-24T05:45:59;8.50;99.90
69901;DHT22;57183;50.930;5.406;2023-04-24T05:48:24;8.50;99.90
69901;DHT22;57183;50.930;5.406;2023-04-24T05:50:50;8.60;99.90
69901;DHT22;57183;50.930;5.406;2023-04-24T05:53:18;8.50;99.90
69901;DHT22;57183;50.930;5.406;2023-04-24T05:55:44;8.50;99.90
69901;DHT22;57183;50.930;5.406;2023-04-24T05:58:10;8.50;99.90
69901;DHT22;57183;50.930;5.406;2023-04-24T06:00:35;8.50;99.90
69901;DHT22;57183;50.930;5.406;2023-04-24T06:03:01;8.40;99.90
69901;DHT22;57183;50.930;5.406;2023-04-24T06:05:29;8.40;99.90
69901;DHT22;57183;50.930;5.406;2023-04-24T06:07:55;8.40;99.90
69901;DHT22;57183;50.930;5.406;2023-04-24T06:10:21;8.30;99.90
69901;DHT22;57183;50.930;5.406;2023-04-24T06:12:47;8.30;99.90
69901;DHT22;57183;50.930;5.406;2023-04-24T06:15:12;8.20;99.90
69901;DHT22;57183;50.930;5.406;2023-04-24T06:17:38;8.20;99.90
69901;DHT22;57183;50.930;5.406;2023-04-24T06:20:04;8.20;99.90
69901;DHT22;57183;50.930;5.406;2023-04-24T06:22:31;8.20;99.90
69901;DHT22;57183;50.930;5.406;2023-04-24T06:24:57;8.10;99.90
69901;DHT22;57183;50.930;5.406;2023-04-24T06:27:22;8.10;99.90
69901;DHT22;57183;50.930;5.406;2023-04-24T06:29:48;8.20;99.90
69901;DHT22;57183;50.930;5.406;2023-04-24T06:32:21;8.20;99.90
69901;DHT22;57183;50.930;5.406;2023-04-24T06:34:47;8.20;99.90
69901;DHT22;57183;50.930;5.406;2023-04-24T06:37:13;8.20;99.90
69901;DHT22;57183;50.930;5.406;2023-04-24T06:39:39;8.20;99.90
69901;DHT22;57183;50.930;5.406;2023-04-24T06:42:05;8.20;99.90
69901;DHT22;57183;50.930;5.406;2023-04-24T06:44:30;8.10;99.90
69901;DHT22;57183;50.930;5.406;2023-04-24T06:46:56;8.10;99.90
69901;DHT22;57183;50.930;5.406;2023-04-24T06:49:22;8.10;99.90
69901;DHT22;57183;50.930;5.406;2023-04-24T06:51:47;8.00;99.90
69901;DHT22;57183;50.930;5.406;2023-04-24T06:54:13;8.00;99.90
69901;DHT22;57183;50.930;5.406;2023-04-24T06:56:39;8.10;99.90
69901;DHT22;57183;50.930;5.406;2023-04-24T06:59:04;8.10;99.90
69901;DHT22;57183;50.930;5.406;2023-04-24T07:01:30;8.00;99.90
69901;DHT22;57183;50.930;5.406;2023-04-24T07:03:56;8.00;99.90
69901;DHT22;57183;50.930;5.406;2023-04-24T07:06:21;8.00;99.90
69901;DHT22;57183;50.930;5.406;2023-04-24T07:08:49;8.00;99.90
69901;DHT22;57183;50.930;5.406;2023-04-24T07:11:14;8.10;99.90
69901;DHT22;57183;50.930;5.406;2023-04-24T07:13:40;8.10;99.90
69901;DHT22;57183;50.930;5.406;2023-04-24T07:16:07;8.20;99.90
69901;DHT22;57183;50.930;5.406;2023-04-24T07:18:34;8.20;99.90
69901;DHT22;57183;50.930;5.406;2023-04-24T07:20:59;8.20;99.90
69901;DHT22;57183;50.930;5.406;2023-04-24T07:23:26;8.30;99.90
69901;DHT22;57183;50.930;5.406;2023-04-24T07:25:51;8.30;99.90
69901;DHT22;57183;50.930;5.406;2023-04-24T07:28:17;8.50;99.90
69901;DHT22;57183;50.930;5.406;2023-04-24T07:30:43;8.50;99.90
69901;DHT22;57183;50.930;5.406;2023-04-24T07:33:09;8.50;99.90
69901;DHT22;57183;50.930;5.406;2023-04-24T07:35:38;8.50;99.90
69901;DHT22;57183;50.930;5.406;2023-04-24T07:38:04;8.50;99.90
69901;DHT22;57183;50.930;5.406;2023-04-24T07:40:30;8.50;99.90
69901;DHT22;57183;50.930;5.406;2023-04-24T07:42:56;8.50;99.90
69901;DHT22;57183;50.930;5.406;2023-04-24T07:45:22;8.60;99.90
69901;DHT22;57183;50.930;5.406;2023-04-24T07:47:50;8.60;99.90
69901;DHT22;57183;50.930;5.406;2023-04-24T07:50:16;8.70;99.90
69901;DHT22;57183;50.930;5.406;2023-04-24T07:52:41;8.60;99.90
69901;DHT22;57183;50.930;5.406;2023-04-24T07:55:07;8.50;99.90
69901;DHT22;57183;50.930;5.406;2023-04-24T07:57:33;8.50;99.90
69901;DHT22;57183;50.930;5.406;2023-04-24T07:59:59;8.60;99.90
69901;DHT22;57183;50.930;5.406;2023-04-24T08:02:25;8.60;99.90
69901;DHT22;57183;50.930;5.406;2023-04-24T08:04:55;8.50;99.90
69901;DHT22;57183;50.930;5.406;2023-04-24T08:07:21;8.50;99.90
69901;DHT22;57183;50.930;5.406;2023-04-24T08:09:46;8.50;99.90
69901;DHT22;57183;50.930;5.406;2023-04-24T08:12:12;8.50;99.90
69901;DHT22;57183;50.930;5.406;2023-04-24T08:14:38;8.60;99.90
69901;DHT22;57183;50.930;5.406;2023-04-24T08:17:03;8.60;99.90
69901;DHT22;57183;50.930;5.406;2023-04-24T08:19:29;8.50;99.90
69901;DHT22;57183;50.930;5.406;2023-04-24T08:21:55;8.50;99.90
69901;DHT22;57183;50.930;5.406;2023-04-24T08:24:21;8.50;99.90
69901;DHT22;57183;50.930;5.406;2023-04-24T08:26:47;8.50;99.90
69901;DHT22;57183;50.930;5.406;2023-04-24T08:29:16;8.50;99.90
69901;DHT22;57183;50.930;5.406;2023-04-24T08:31:41;8.50;99.90
69901;DHT22;57183;50.930;5.406;2023-04-24T08:34:07;8.50;99.90
69901;DHT22;57183;50.930;5.406;2023-04-24T08:36:34;8.60;99.90
69901;DHT22;57183;50.930;5.406;2023-04-24T08:39:00;8.70;99.90
69901;DHT22;57183;50.930;5.406;2023-04-24T08:41:27;8.80;99.90
69901;DHT22;57183;50.930;5.406;2023-04-24T08:43:53;8.90;99.90
69901;DHT22;57183;50.930;5.406;2023-04-24T08:46:20;9.10;99.90
69901;DHT22;57183;50.930;5.406;2023-04-24T08:48:48;9.20;99.90
69901;DHT22;57183;50.930;5.406;2023-04-24T08:51:15;9.20;99.90
69901;DHT22;57183;50.930;5.406;2023-04-24T08:53:42;9.30;99.90
69901;DHT22;57183;50.930;5.406;2023-04-24T08:56:09;9.30;99.90
69901;DHT22;57183;50.930;5.406;2023-04-24T08:58:37;9.60;99.90
69901;DHT22;57183;50.930;5.406;2023-04-24T09:01:04;9.70;99.90
69901;DHT22;57183;50.930;5.406;2023-04-24T09:03:31;9.80;99.90
69901;DHT22;57183;50.930;5.406;2023-04-24T09:06:01;9.70;99.90
69901;DHT22;57183;50.930;5.406;2023-04-24T09:08:31;9.70;99.90
69901;DHT22;57183;50.930;5.406;2023-04-24T09:10:59;9.60;99.90
69901;DHT22;57183;50.930;5.406;2023-04-24T09:13:27;9.60;99.90
69901;DHT22;57183;50.930;5.406;2023-04-24T09:15:54;9.40;99.90
69901;DHT22;57183;50.930;5.406;2023-04-24T09:18:22;9.10;99.90
69901;DHT22;57183;50.930;5.406;2023-04-24T09:21:08;8.90;99.90
69901;DHT22;57183;50.930;5.406;2023-04-24T09:23:35;8.70;99.90
69901;DHT22;57183;50.930;5.406;2023-04-24T09:26:02;8.90;99.90
69901;DHT22;57183;50.930;5.406;2023-04-24T09:28:39;8.80;99.90
69901;DHT22;57183;50.930;5.406;2023-04-24T09:31:11;8.80;99.90
69901;DHT22;57183;50.930;5.406;2023-04-24T09:33:54;8.70;99.90
69901;DHT22;57183;50.930;5.406;2023-04-24T09:36:30;8.90;99.90
69901;DHT22;57183;50.930;5.406;2023-04-24T09:39:01;9.00;99.90
69901;DHT22;57183;50.930;5.406;2023-04-24T09:41:27;8.90;99.90
69901;DHT22;57183;50.930;5.406;2023-04-24T09:44:13;9.10;99.90
69901;DHT22;57183;50.930;5.406;2023-04-24T09:46:41;9.10;99.90
69901;DHT22;57183;50.930;5.406;2023-04-24T09:49:13;9.50;99.90
69901;DHT22;57183;50.930;5.406;2023-04-24T09:51:40;9.60;99.90
69901;DHT22;57183;50.930;5.406;2023-04-24T09:54:17;9.90;99.90
69901;DHT22;57183;50.930;5.406;2023-04-24T09:56:45;10.30;99.90
69901;DHT22;57183;50.930;5.406;2023-04-24T09:59:14;10.50;99.90
69901;DHT22;57183;50.930;5.406;2023-04-24T10:01:40;10.70;99.90
69901;DHT22;57183;50.930;5.406;2023-04-24T10:04:22;10.80;99.90
69901;DHT22;57183;50.930;5.406;2023-04-24T10:06:50;11.00;99.90
69901;DHT22;57183;50.930;5.406;2023-04-24T10:09:23;11.10;99.90
69901;DHT22;57183;50.930;5.406;2023-04-24T10:11:50;11.30;99.90
69901;DHT22;57183;50.930;5.406;2023-04-24T10:14:21;11.50;99.90
69901;DHT22;57183;50.930;5.406;2023-04-24T10:16:52;11.50;99.90
69901;DHT22;57183;50.930;5.406;2023-04-24T10:19:20;11.40;99.90
69901;DHT22;57183;50.930;5.406;2023-04-24T10:21:46;11.30;99.90
69901;DHT22;57183;50.930;5.406;2023-04-24T10:24:16;11.10;99.90
69901;DHT22;57183;50.930;5.406;2023-04-24T10:26:44;11.00;99.90
69901;DHT22;57183;50.930;5.406;2023-04-24T10:29:12;10.90;99.90
69901;DHT22;57183;50.930;5.406;2023-04-24T10:31:38;10.70;99.90
69901;DHT22;57183;50.930;5.406;2023-04-24T10:34:06;10.80;99.90
69901;DHT22;57183;50.930;5.406;2023-04-24T10:36:33;10.80;99.90
69901;DHT22;57183;50.930;5.406;2023-04-24T10:39:02;10.80;99.90
69901;DHT22;57183;50.930;5.406;2023-04-24T10:41:30;11.00;99.90
69901;DHT22;57183;50.930;5.406;2023-04-24T10:44:09;11.20;99.90
69901;DHT22;57183;50.930;5.406;2023-04-24T10:46:39;11.40;99.90
69901;DHT22;57183;50.930;5.406;2023-04-24T10:49:07;11.60;99.90
69901;DHT22;57183;50.930;5.406;2023-04-24T10:52:03;11.50;99.90
69901;DHT22;57183;50.930;5.406;2023-04-24T10:54:46;11.50;99.90
69901;DHT22;57183;50.930;5.406;2023-04-24T10:59:44;11.50;99.90
69901;DHT22;57183;50.930;5.406;2023-04-24T11:02:10;11.40;99.90
69901;DHT22;57183;50.930;5.406;2023-04-24T11:04:36;11.20;99.90
69901;DHT22;57183;50.930;5.406;2023-04-24T11:07:04;11.00;99.90
69901;DHT22;57183;50.930;5.406;2023-04-24T11:09:31;11.00;99.90
69901;DHT22;57183;50.930;5.406;2023-04-24T11:12:08;11.00;99.90
69901;DHT22;57183;50.930;5.406;2023-04-24T11:17:36;11.00;99.90
69901;DHT22;57183;50.930;5.406;2023-04-24T11:20:10;11.10;99.90
69901;DHT22;57183;50.930;5.406;2023-04-24T11:22:38;11.10;99.90
69901;DHT22;57183;50.930;5.406;2023-04-24T11:25:06;11.00;99.90
69901;DHT22;57183;50.930;5.406;2023-04-24T11:27:39;10.90;99.90
69901;DHT22;57183;50.930;5.406;2023-04-24T11:30:06;10.90;99.90
69901;DHT22;57183;50.930;5.406;2023-04-24T11:35:14;11.00;99.90
69901;DHT22;57183;50.930;5.406;2023-04-24T11:37:47;11.10;99.90
69901;DHT22;57183;50.930;5.406;2023-04-24T11:40:16;11.40;99.90
69901;DHT22;57183;50.930;5.406;2023-04-24T11:42:43;11.70;99.90
69901;DHT22;57183;50.930;5.406;2023-04-24T11:45:29;11.90;99.90
69901;DHT22;57183;50.930;5.406;2023-04-24T11:47:55;12.10;99.90
69901;DHT22;57183;50.930;5.406;2023-04-24T11:50:25;12.20;99.90
69901;DHT22;57183;50.930;5.406;2023-04-24T11:52:52;12.20;99.90
69901;DHT22;57183;50.930;5.406;2023-04-24T11:57:52;12.60;99.90
69901;DHT22;57183;50.930;5.406;2023-04-24T12:00:20;12.80;99.90
69901;DHT22;57183;50.930;5.406;2023-04-24T12:02:47;12.60;99.90
69901;DHT22;57183;50.930;5.406;2023-04-24T12:05:23;12.30;99.90
69901;DHT22;57183;50.930;5.406;2023-04-24T12:07:49;12.10;99.90
69901;DHT22;57183;50.930;5.406;2023-04-24T12:10:20;12.20;99.90
69901;DHT22;57183;50.930;5.406;2023-04-24T12:12:46;12.30;99.90
69901;DHT22;57183;50.930;5.406;2023-04-24T12:15:12;12.30;99.90
69901;DHT22;57183;50.930;5.406;2023-04-24T12:17:41;12.40;99.90
69901;DHT22;57183;50.930;5.406;2023-04-24T12:20:07;12.60;99.90
69901;DHT22;57183;50.930;5.406;2023-04-24T12:23:03;12.80;99.90
69901;DHT22;57183;50.930;5.406;2023-04-24T12:25:30;12.90;99.90
69901;DHT22;57183;50.930;5.406;2023-04-24T12:30:33;12.30;99.90
69901;DHT22;57183;50.930;5.406;2023-04-24T12:33:00;12.30;99.90
69901;DHT22;57183;50.930;5.406;2023-04-24T12:35:31;12.60;99.90
69901;DHT22;57183;50.930;5.406;2023-04-24T12:38:08;12.70;99.90
69901;DHT22;57183;50.930;5.406;2023-04-24T12:40:33;12.90;99.90
69901;DHT22;57183;50.930;5.406;2023-04-24T12:42:59;12.80;99.90
69901;DHT22;57183;50.930;5.406;2023-04-24T12:45:25;12.60;99.90
69901;DHT22;57183;50.930;5.406;2023-04-24T12:47:53;12.60;99.90
69901;DHT22;57183;50.930;5.406;2023-04-24T12:50:18;12.60;99.90
69901;DHT22;57183;50.930;5.406;2023-04-24T12:52:44;12.80;99.90
69901;DHT22;57183;50.930;5.406;2023-04-24T12:55:10;12.70;99.90
69901;DHT22;57183;50.930;5.406;2023-04-24T12:57:38;12.90;99.90
69901;DHT22;57183;50.930;5.406;2023-04-24T13:00:05;13.00;99.90
69901;DHT22;57183;50.930;5.406;2023-04-24T13:02:32;13.30;99.90
69901;DHT22;57183;50.930;5.406;2023-04-24T13:04:59;13.00;99.90
69901;DHT22;57183;50.930;5.406;2023-04-24T13:07:25;12.70;99.90
69901;DHT22;57183;50.930;5.406;2023-04-24T13:09:51;12.70;99.90
69901;DHT22;57183;50.930;5.406;2023-04-24T13:12:18;12.50;99.90
69901;DHT22;57183;50.930;5.406;2023-04-24T13:14:43;12.50;99.90
69901;DHT22;57183;50.930;5.406;2023-04-24T13:17:09;12.70;99.90
69901;DHT22;57183;50.930;5.406;2023-04-24T13:19:38;12.90;99.90
69901;DHT22;57183;50.930;5.406;2023-04-24T13:22:04;12.90;99.90
69901;DHT22;57183;50.930;5.406;2023-04-24T13:24:30;13.10;99.90
69901;DHT22;57183;50.930;5.406;2023-04-24T13:26:56;13.40;99.90
69901;DHT22;57183;50.930;5.406;2023-04-24T13:29:22;13.80;99.90
69901;DHT22;57183;50.930;5.406;2023-04-24T13:31:50;13.70;99.90
69901;DHT22;57183;50.930;5.406;2023-04-24T13:34:15;13.60;99.90
69901;DHT22;57183;50.930;5.406;2023-04-24T13:36:41;13.20;99.90
69901;DHT22;57183;50.930;5.406;2023-04-24T13:39:07;13.10;99.90
69901;DHT22;57183;50.930;5.406;2023-04-24T13:41:33;13.00;99.90
69901;DHT22;57183;50.930;5.406;2023-04-24T13:43:59;13.00;99.90
69901;DHT22;57183;50.930;5.406;2023-04-24T13:46:25;13.20;99.90
69901;DHT22;57183;50.930;5.406;2023-04-24T13:48:51;13.10;99.90
69901;DHT22;57183;50.930;5.406;2023-04-24T13:51:18;13.30;99.90
69901;DHT22;57183;50.930;5.406;2023-04-24T13:53:44;13.60;99.90
69901;DHT22;57183;50.930;5.406;2023-04-24T13:56:10;14.00;99.90
69901;DHT22;57183;50.930;5.406;2023-04-24T13:58:38;13.90;99.90
69901;DHT22;57183;50.930;5.406;2023-04-24T14:01:04;13.70;99.90
69901;DHT22;57183;50.930;5.406;2023-04-24T14:03:29;13.30;99.90
69901;DHT22;57183;50.930;5.406;2023-04-24T14:05:55;13.30;99.90
69901;DHT22;57183;50.930;5.406;2023-04-24T14:08:21;13.30;99.90
69901;DHT22;57183;50.930;5.406;2023-04-24T14:10:46;13.30;99.90
69901;DHT22;57183;50.930;5.406;2023-04-24T14:13:12;13.40;99.90
69901;DHT22;57183;50.930;5.406;2023-04-24T14:15:38;14.30;99.90
69901;DHT22;57183;50.930;5.406;2023-04-24T14:18:04;14.40;99.90
69901;DHT22;57183;50.930;5.406;2023-04-24T14:20:30;14.10;99.90
69901;DHT22;57183;50.930;5.406;2023-04-24T14:22:56;14.30;99.90
69901;DHT22;57183;50.930;5.406;2023-04-24T14:25:24;15.20;99.90
69901;DHT22;57183;50.930;5.406;2023-04-24T14:27:50;16.00;99.90
69901;DHT22;57183;50.930;5.406;2023-04-24T14:30:17;16.20;99.90
69901;DHT22;57183;50.930;5.406;2023-04-24T14:32:42;15.70;99.90
69901;DHT22;57183;50.930;5.406;2023-04-24T14:35:08;14.80;99.90
69901;DHT22;57183;50.930;5.406;2023-04-24T14:37:34;14.30;99.90
69901;DHT22;57183;50.930;5.406;2023-04-24T14:40:01;13.90;99.90
69901;DHT22;57183;50.930;5.406;2023-04-24T14:42:27;13.60;99.90
69901;DHT22;57183;50.930;5.406;2023-04-24T14:44:54;13.60;99.90
69901;DHT22;57183;50.930;5.406;2023-04-24T14:47:20;13.50;99.90
69901;DHT22;57183;50.930;5.406;2023-04-24T14:49:50;13.60;99.90
69901;DHT22;57183;50.930;5.406;2023-04-24T14:52:16;13.80;99.90
69901;DHT22;57183;50.930;5.406;2023-04-24T14:54:42;13.70;99.90
69901;DHT22;57183;50.930;5.406;2023-04-24T14:57:08;14.00;99.90
69901;DHT22;57183;50.930;5.406;2023-04-24T14:59:34;15.10;99.90
69901;DHT22;57183;50.930;5.406;2023-04-24T15:02:00;15.30;99.90
69901;DHT22;57183;50.930;5.406;2023-04-24T15:04:27;15.30;99.90
69901;DHT22;57183;50.930;5.406;2023-04-24T15:06:53;15.20;99.90
69901;DHT22;57183;50.930;5.406;2023-04-24T15:09:23;14.90;99.90
69901;DHT22;57183;50.930;5.406;2023-04-24T15:11:50;14.40;99.90
69901;DHT22;57183;50.930;5.406;2023-04-24T15:14:17;14.40;99.90
69901;DHT22;57183;50.930;5.406;2023-04-24T15:16:43;14.10;99.90
69901;DHT22;57183;50.930;5.406;2023-04-24T15:19:08;14.00;99.90
69901;DHT22;57183;50.930;5.406;2023-04-24T15:21:36;14.00;99.90
69901;DHT22;57183;50.930;5.406;2023-04-24T15:24:01;13.80;99.90
69901;DHT22;57183;50.930;5.406;2023-04-24T15:26:27;13.70;99.90
69901;DHT22;57183;50.930;5.406;2023-04-24T15:28:53;13.70;99.90
69901;DHT22;57183;50.930;5.406;2023-04-24T15:31:19;14.00;99.90
69901;DHT22;57183;50.930;5.406;2023-04-24T15:33:44;14.00;99.90
69901;DHT22;57183;50.930;5.406;2023-04-24T15:36:10;14.60;99.90
69901;DHT22;57183;50.930;5.406;2023-04-24T15:38:37;15.50;99.90
69901;DHT22;57183;50.930;5.406;2023-04-24T15:41:03;15.20;99.90
69901;DHT22;57183;50.930;5.406;2023-04-24T15:43:28;14.70;99.90
69901;DHT22;57183;50.930;5.406;2023-04-24T15:45:56;14.20;99.90
69901;DHT22;57183;50.930;5.406;2023-04-24T15:48:22;13.80;99.90